Time;durP1;ratioP1;P1;durP2;ratioP2;P2;SDS_P1;SDS_P2;PMS_P1;PMS_P2;Temp;Humidity;BMP_temperature;BMP_pressure;BME280_temperature;BME280_humidity;BME280_pressure;Samples;Min_cycle;Max_cycle;Signal;HPM_P1;HPM_P2
2023/02/11 00:01:33;;;;;;;38.30;24.90;;;5.50;90.10;;;;;;5014963;28;20211;-88
2023/02/11 00:04:00;;;;;;;31.50;19.77;;;5.60;89.90;;;;;;5015413;28;20180;-89
2023/02/11 00:06:27;;;;;;;49.23;29.27;;;5.70;89.70;;;;;;5016873;28;20263;-89
2023/02/11 00:08:54;;;;;;;48.53;27.33;;;5.60;89.80;;;;;;5015581;28;20252;-89
2023/02/11 00:11:21;;;;;;;42.20;27.03;;;5.70;89.90;;;;;;5014985;28;20225;-89
2023/02/11 00:13:47;;;;;;;44.93;27.07;;;5.60;89.90;;;;;;5014936;28;20259;-88
2023/02/11 00:16:16;;;;;;;30.33;21.90;;;5.60;90.10;;;;;;5014874;28;20635;-88
2023/02/11 00:18:42;;;;;;;46.23;30.40;;;5.60;90.40;;;;;;5015092;28;20180;-88
2023/02/11 00:21:13;;;;;;;37.90;26.63;;;5.50;90.90;;;;;;5015237;28;20732;-89
2023/02/11 00:23:39;;;;;;;28.13;20.87;;;5.50;91.10;;;;;;5014989;28;20221;-88
2023/02/11 00:26:12;;;;;;;27.57;22.53;;;5.60;91.10;;;;;;5016358;28;20247;-87
2023/02/11 00:28:37;;;;;;;47.83;30.00;;;5.50;91.00;;;;;;5015270;28;20181;-89
2023/02/11 00:31:03;;;;;;;39.40;25.73;;;5.60;91.10;;;;;;5014103;28;20677;-88
2023/02/11 00:33:29;;;;;;;54.80;33.30;;;5.50;91.40;;;;;;5014251;28;20223;-89
2023/02/11 00:35:54;;;;;;;48.57;31.20;;;5.50;91.70;;;;;;5015379;28;20199;-89
2023/02/11 00:38:20;;;;;;;39.73;27.00;;;5.50;91.80;;;;;;5014106;28;20741;-89
2023/02/11 00:40:45;;;;;;;35.27;28.30;;;5.60;91.80;;;;;;5013686;28;20207;-89
2023/02/11 00:43:11;;;;;;;37.87;28.90;;;5.50;91.80;;;;;;5015322;28;20175;-91
2023/02/11 00:45:36;;;;;;;48.33;33.13;;;5.50;92.00;;;;;;5014839;28;20173;-89
2023/02/11 00:48:02;;;;;;;51.60;34.33;;;5.60;92.00;;;;;;5014911;28;20647;-87
2023/02/11 00:50:27;;;;;;;51.87;34.97;;;5.60;92.10;;;;;;5016752;28;20184;-90
2023/02/11 00:52:53;;;;;;;45.90;32.33;;;5.50;92.20;;;;;;5016209;28;20239;-89
2023/02/11 00:55:18;;;;;;;51.73;34.33;;;5.50;92.40;;;;;;5014772;28;20185;-89
2023/02/11 00:57:44;;;;;;;67.63;39.77;;;5.50;92.40;;;;;;5015190;28;20192;-87
2023/02/11 01:00:12;;;;;;;53.10;37.57;;;5.50;92.50;;;;;;5015991;28;20272;-88
2023/02/11 01:02:38;;;;;;;54.40;35.60;;;5.60;92.60;;;;;;5016649;28;20213;-88
2023/02/11 01:05:04;;;;;;;59.07;39.63;;;5.60;92.50;;;;;;5016647;28;20590;-88
2023/02/11 01:07:29;;;;;;;51.43;36.23;;;5.60;92.50;;;;;;5017075;28;20220;-89
2023/02/11 01:09:55;;;;;;;53.20;34.83;;;5.70;92.50;;;;;;5016512;28;20540;-88
2023/02/11 01:12:21;;;;;;;50.17;33.57;;;5.70;92.40;;;;;;5015059;28;20578;-89
2023/02/11 01:14:47;;;;;;;43.10;32.83;;;5.70;92.50;;;;;;5014329;28;20180;-89
2023/02/11 01:17:12;;;;;;;63.40;40.87;;;5.60;92.60;;;;;;5018119;28;20178;-90
2023/02/11 01:19:38;;;;;;;64.47;37.50;;;5.70;92.60;;;;;;5016438;28;20177;-88
2023/02/11 01:22:04;;;;;;;55.60;40.47;;;5.70;92.70;;;;;;5013457;28;20213;-89
2023/02/11 01:24:30;;;;;;;63.43;40.63;;;5.70;92.80;;;;;;5013653;28;20181;-89
2023/02/11 01:26:55;;;;;;;62.07;44.87;;;5.70;93.00;;;;;;5012964;28;20210;-90
2023/02/11 01:29:21;;;;;;;60.97;41.30;;;5.60;93.10;;;;;;5013362;28;20184;-90
2023/02/11 01:31:47;;;;;;;68.87;45.17;;;5.60;93.20;;;;;;5015130;28;20207;-89
2023/02/11 01:34:14;;;;;;;62.67;45.37;;;5.70;93.20;;;;;;5013982;28;20716;-89
2023/02/11 01:36:39;;;;;;;68.20;41.63;;;5.70;93.30;;;;;;5014751;28;20206;-88
2023/02/11 01:39:05;;;;;;;53.70;40.93;;;5.60;93.40;;;;;;5014355;28;20184;-89
2023/02/11 01:41:31;;;;;;;71.57;47.30;;;5.70;93.40;;;;;;5014799;28;20208;-88
2023/02/11 01:43:56;;;;;;;79.77;49.27;;;5.80;93.30;;;;;;5015528;28;20178;-89
2023/02/11 01:46:36;;;;;;;65.00;41.63;;;5.80;93.20;;;;;;5014321;28;20588;-90
2023/02/11 01:49:04;;;;;;;56.13;41.90;;;5.80;93.10;;;;;;5014435;28;20176;-88
2023/02/11 01:51:37;;;;;;;41.10;32.47;;;5.80;93.10;;;;;;5015271;28;20200;-88
2023/02/11 01:59:47;;;;;;;46.67;37.10;;;5.90;92.80;;;;;;5017376;28;20196;-87
2023/02/11 02:02:16;;;;;;;56.03;39.23;;;5.90;92.60;;;;;;5016954;28;20583;-93
2023/02/11 02:05:13;;;;;;;45.63;33.50;;;5.90;92.60;;;;;;5017679;28;20172;-88
2023/02/11 02:07:48;;;;;;;53.77;40.60;;;5.90;92.50;;;;;;5014833;28;20177;-88
2023/02/11 02:10:19;;;;;;;56.43;38.90;;;5.90;92.60;;;;;;5014973;28;20291;-89
2023/02/11 02:12:45;;;;;;;67.80;39.53;;;5.90;92.50;;;;;;5013890;28;20674;-89
2023/02/11 02:15:22;;;;;;;59.90;43.33;;;6.00;92.50;;;;;;5012886;28;20239;-89
2023/02/11 02:17:58;;;;;;;51.10;37.57;;;6.00;92.50;;;;;;5012702;28;20176;-89
2023/02/11 02:20:23;;;;;;;61.33;41.37;;;6.00;92.50;;;;;;5013911;28;20175;-90
2023/02/11 02:23:21;;;;;;;47.93;31.93;;;6.00;92.50;;;;;;5013896;28;20671;-90
2023/02/11 02:26:10;;;;;;;68.77;42.63;;;6.00;92.40;;;;;;5005596;28;20193;-89
2023/02/11 02:29:08;;;;;;;62.53;41.47;;;6.00;92.30;;;;;;5013423;28;20178;-89
2023/02/11 02:31:57;;;;;;;55.43;38.60;;;6.00;92.30;;;;;;5016890;28;20562;-89
2023/02/11 02:34:35;;;;;;;47.00;36.93;;;6.10;92.30;;;;;;5016575;28;20231;-89
2023/02/11 02:37:11;;;;;;;48.93;33.07;;;6.10;92.30;;;;;;5016342;28;20619;-89
2023/02/11 02:39:38;;;;;;;54.53;39.07;;;6.10;92.40;;;;;;5018485;28;20202;-89
2023/02/11 02:42:04;;;;;;;55.87;36.87;;;6.10;92.40;;;;;;5016463;28;20749;-89
2023/02/11 02:44:30;;;;;;;53.17;35.20;;;6.10;92.50;;;;;;5017097;28;20550;-90
2023/02/11 02:46:56;;;;;;;60.87;38.80;;;6.10;92.60;;;;;;5018926;28;20177;-87
2023/02/11 02:49:23;;;;;;;65.63;40.27;;;6.10;92.70;;;;;;5018776;28;20184;-90
2023/02/11 02:51:51;;;;;;;56.03;41.23;;;6.10;92.80;;;;;;5020047;28;20201;-88
2023/02/11 02:54:48;;;;;;;59.10;39.77;;;6.00;93.00;;;;;;5019403;28;20550;-88
2023/02/11 02:57:30;;;;;;;49.63;40.90;;;6.00;93.10;;;;;;5019013;28;20181;-90
2023/02/11 03:00:33;;;;;;;66.83;45.17;;;6.00;93.20;;;;;;5017306;28;20173;-90
2023/02/11 03:03:15;;;;;;;60.00;41.37;;;6.00;93.40;;;;;;5017964;28;20199;-90
2023/02/11 03:06:07;;;;;;;56.23;43.47;;;5.90;93.70;;;;;;5018064;28;20164;-88
2023/02/11 03:08:50;;;;;;;70.70;48.10;;;5.90;93.80;;;;;;5015673;28;20176;-89
2023/02/11 03:11:19;;;;;;;59.27;44.03;;;5.90;93.90;;;;;;5016100;28;20209;-90
2023/02/11 03:13:46;;;;;;;59.13;46.57;;;5.90;94.00;;;;;;5015959;28;20184;-91
2023/02/11 03:16:17;;;;;;;60.00;44.87;;;5.90;94.00;;;;;;5016106;28;20211;-89
2023/02/11 03:18:49;;;;;;;60.47;50.23;;;5.90;94.10;;;;;;5015905;28;20279;-90
2023/02/11 03:21:16;;;;;;;73.67;48.97;;;5.90;94.10;;;;;;5015515;28;20230;-89
2023/02/11 03:23:55;;;;;;;55.87;46.27;;;6.00;94.10;;;;;;5015924;28;20242;-89
2023/02/11 03:26:57;;;;;;;84.03;51.33;;;6.00;94.00;;;;;;5015575;28;20692;-89
2023/02/11 03:29:50;;;;;;;41.80;37.60;;;6.00;94.00;;;;;;5018112;28;20221;-90
2023/02/11 03:32:25;;;;;;;70.53;46.17;;;6.00;94.00;;;;;;5016592;28;20679;-89
2023/02/11 03:35:03;;;;;;;58.33;44.27;;;6.00;93.90;;;;;;5017974;28;20184;-88
2023/02/11 03:37:39;;;;;;;42.37;36.73;;;6.10;93.90;;;;;;5018005;28;20176;-88
2023/02/11 03:40:38;;;;;;;49.47;41.30;;;6.10;93.70;;;;;;5019809;28;20160;-88
2023/02/11 03:43:10;;;;;;;55.20;40.40;;;6.10;93.80;;;;;;4963866;28;20216;-88
2023/02/11 03:45:37;;;;;;;67.93;46.57;;;6.10;93.70;;;;;;5015537;28;20177;-89
2023/02/11 03:48:11;;;;;;;66.60;48.17;;;6.10;93.70;;;;;;5016457;28;20177;-89
2023/02/11 03:50:39;;;;;;;63.93;43.57;;;6.20;93.60;;;;;;5016681;28;20251;-89
2023/02/11 03:53:05;;;;;;;80.23;51.33;;;6.20;93.60;;;;;;5015224;28;20639;-90
2023/02/11 03:55:35;;;;;;;67.23;46.70;;;6.30;93.50;;;;;;5015581;28;20216;-90
2023/02/11 03:58:01;;;;;;;62.70;45.00;;;6.30;93.40;;;;;;5015205;28;20189;-89
2023/02/11 04:00:36;;;;;;;66.57;46.73;;;6.30;93.30;;;;;;5015147;28;20181;-89
2023/02/11 04:03:05;;;;;;;49.73;43.17;;;6.30;93.20;;;;;;5016442;28;20192;-88
2023/02/11 04:05:31;;;;;;;62.97;42.83;;;6.30;93.10;;;;;;5015586;28;20276;-89
2023/02/11 04:07:56;;;;;;;59.87;43.93;;;6.30;93.00;;;;;;5014877;28;20204;-90
2023/02/11 04:10:22;;;;;;;65.23;44.77;;;6.30;93.00;;;;;;5014474;28;20173;-89
2023/02/11 04:12:48;;;;;;;62.07;44.70;;;6.30;93.00;;;;;;5014511;28;20288;-89
2023/02/11 04:15:13;;;;;;;57.43;44.23;;;6.40;93.00;;;;;;5014447;28;20185;-90
2023/02/11 04:17:39;;;;;;;61.40;43.20;;;6.40;92.90;;;;;;5014805;28;20247;-89
2023/02/11 04:20:04;;;;;;;59.53;41.77;;;6.40;92.80;;;;;;5014485;28;20178;-89
2023/02/11 04:22:30;;;;;;;52.30;39.83;;;6.40;92.80;;;;;;5015192;28;20733;-88
2023/02/11 04:24:56;;;;;;;61.27;43.53;;;6.40;92.70;;;;;;5015851;28;20177;-90
2023/02/11 04:27:21;;;;;;;56.90;40.17;;;6.50;92.70;;;;;;5015285;28;20251;-88
2023/02/11 04:29:47;;;;;;;65.53;41.83;;;6.50;92.70;;;;;;5017237;28;20193;-88
2023/02/11 04:32:12;;;;;;;60.63;42.80;;;6.50;92.70;;;;;;5016466;28;20197;-88
2023/02/11 04:34:38;;;;;;;54.33;41.83;;;6.50;92.70;;;;;;5016341;28;20647;-87
2023/02/11 04:37:04;;;;;;;51.33;42.53;;;6.50;92.70;;;;;;5017066;28;20180;-89
2023/02/11 04:39:29;;;;;;;61.50;44.47;;;6.50;92.80;;;;;;5014085;28;20276;-89
2023/02/11 04:41:55;;;;;;;62.60;49.07;;;6.50;93.00;;;;;;5013776;28;20231;-89
2023/02/11 04:44:21;;;;;;;60.10;49.33;;;6.50;93.30;;;;;;5015096;28;20188;-90
2023/02/11 04:46:47;;;;;;;57.27;48.67;;;6.50;93.40;;;;;;5013713;28;20177;-89
2023/02/11 04:49:14;;;;;;;65.57;54.37;;;6.40;93.80;;;;;;5013855;28;20180;-90
2023/02/11 04:51:39;;;;;;;67.17;54.53;;;6.40;93.90;;;;;;5013623;28;20197;-89
2023/02/11 04:54:05;;;;;;;70.13;57.23;;;6.40;94.10;;;;;;5013249;28;20183;-89
2023/02/11 04:56:30;;;;;;;69.37;61.57;;;6.40;94.30;;;;;;5013686;28;20663;-89
2023/02/11 04:58:56;;;;;;;77.87;59.17;;;6.40;94.40;;;;;;5014686;28;20229;-89
2023/02/11 05:01:21;;;;;;;67.17;59.93;;;6.40;94.50;;;;;;5013224;28;20300;-89
2023/02/11 05:03:47;;;;;;;76.47;63.97;;;6.40;94.60;;;;;;5013418;28;20265;-90
2023/02/11 05:06:13;;;;;;;68.50;58.57;;;6.30;94.70;;;;;;5014529;28;20169;-90
2023/02/11 05:08:39;;;;;;;77.30;59.80;;;6.40;94.90;;;;;;5013616;28;20188;-89
2023/02/11 05:11:05;;;;;;;70.97;59.83;;;6.40;94.90;;;;;;5015430;28;20193;-89
2023/02/11 05:13:31;;;;;;;77.17;65.33;;;6.40;95.00;;;;;;5013964;28;20658;-90
2023/02/11 05:15:56;;;;;;;76.20;63.57;;;6.40;95.10;;;;;;5013269;28;20177;-90
2023/02/11 05:18:22;;;;;;;69.60;62.00;;;6.30;95.20;;;;;;5014803;28;20165;-89
2023/02/11 05:20:48;;;;;;;70.40;62.77;;;6.40;95.30;;;;;;5014051;28;20177;-88
2023/02/11 05:23:14;;;;;;;82.90;68.93;;;6.40;95.30;;;;;;5013741;28;20575;-89
2023/02/11 05:25:39;;;;;;;71.37;64.23;;;6.40;95.40;;;;;;5015282;28;20189;-88
2023/02/11 05:28:05;;;;;;;68.43;61.37;;;6.30;95.40;;;;;;5014788;28;20215;-91
2023/02/11 05:30:31;;;;;;;75.30;67.13;;;6.30;95.60;;;;;;5015310;28;20177;-91
2023/02/11 05:32:56;;;;;;;73.93;66.37;;;6.20;95.60;;;;;;5013652;28;20223;-88
2023/02/11 05:35:22;;;;;;;65.67;59.17;;;6.20;95.60;;;;;;5013014;28;20178;-90
2023/02/11 05:37:47;;;;;;;66.97;60.73;;;6.20;95.70;;;;;;5013028;28;20181;-89
2023/02/11 05:40:13;;;;;;;84.60;67.97;;;6.20;95.80;;;;;;5012976;28;20185;-91
2023/02/11 05:42:39;;;;;;;75.03;67.73;;;6.30;95.80;;;;;;5013451;28;20216;-90
2023/02/11 05:45:05;;;;;;;81.13;72.43;;;6.30;95.90;;;;;;5012721;28;20246;-89
2023/02/11 05:47:31;;;;;;;86.27;77.43;;;6.20;95.90;;;;;;5013902;28;20205;-90
2023/02/11 05:49:56;;;;;;;86.40;77.43;;;6.30;96.00;;;;;;5013164;28;20220;-89
2023/02/11 05:52:23;;;;;;;86.83;79.40;;;6.30;96.00;;;;;;5012981;28;20668;-91
2023/02/11 05:54:48;;;;;;;85.00;77.17;;;6.30;96.00;;;;;;5012697;28;20630;-89
2023/02/11 05:57:15;;;;;;;92.93;83.10;;;6.20;96.00;;;;;;5012586;28;20185;-89
2023/02/11 05:59:40;;;;;;;86.90;78.70;;;6.30;96.10;;;;;;5013515;28;20177;-90
2023/02/11 06:02:08;;;;;;;89.20;80.40;;;6.30;96.10;;;;;;5012400;28;20215;-91
2023/02/11 06:04:34;;;;;;;93.77;84.37;;;6.30;96.10;;;;;;5014159;28;20367;-90
2023/02/11 06:07:00;;;;;;;86.40;77.83;;;6.30;96.10;;;;;;5016201;28;20264;-90
2023/02/11 06:09:25;;;;;;;87.00;78.67;;;6.30;96.20;;;;;;5018479;28;20253;-89
2023/02/11 06:11:51;;;;;;;90.73;81.90;;;6.30;96.20;;;;;;5017759;28;20208;-88
2023/02/11 06:14:17;;;;;;;90.80;82.63;;;6.30;96.20;;;;;;5016767;28;20173;-90
2023/02/11 06:16:43;;;;;;;97.50;87.40;;;6.30;96.20;;;;;;5016374;28;20581;-90
2023/02/11 06:19:09;;;;;;;98.83;89.63;;;6.30;96.20;;;;;;5017873;28;20173;-89
2023/02/11 06:21:34;;;;;;;96.80;87.70;;;6.30;96.20;;;;;;5016291;28;20209;-90
2023/02/11 06:24:00;;;;;;;101.20;91.53;;;6.40;96.20;;;;;;5016872;28;20260;-89
2023/02/11 06:26:25;;;;;;;100.23;90.67;;;6.40;96.20;;;;;;5016874;28;20192;-90
2023/02/11 06:28:51;;;;;;;102.33;91.93;;;6.40;96.20;;;;;;5016149;28;20178;-90
2023/02/11 06:31:16;;;;;;;105.53;95.50;;;6.50;96.20;;;;;;5015882;28;20255;-90
2023/02/11 06:33:42;;;;;;;102.70;92.20;;;6.40;96.20;;;;;;5016067;28;20648;-90
2023/02/11 06:36:19;;;;;;;106.77;96.50;;;6.50;96.20;;;;;;5016199;28;20184;-90
2023/02/11 06:38:45;;;;;;;110.67;100.03;;;6.50;96.20;;;;;;5016082;28;20272;-90
2023/02/11 06:41:12;;;;;;;110.47;99.17;;;6.50;96.20;;;;;;5015807;28;20722;-90
2023/02/11 06:43:38;;;;;;;115.30;103.17;;;6.50;96.20;;;;;;5015961;28;20644;-89
2023/02/11 06:46:04;;;;;;;106.37;96.13;;;6.50;96.20;;;;;;5016846;28;20235;-90
2023/02/11 06:48:30;;;;;;;111.07;100.00;;;6.50;96.20;;;;;;5015724;28;20181;-89
2023/02/11 06:50:55;;;;;;;112.33;101.27;;;6.50;96.20;;;;;;5015814;28;20201;-90
2023/02/11 06:53:21;;;;;;;108.87;98.20;;;6.50;96.20;;;;;;5015843;28;20279;-90
2023/02/11 06:55:46;;;;;;;116.40;104.70;;;6.50;96.30;;;;;;5015722;28;20243;-90
2023/02/11 06:58:12;;;;;;;115.10;103.13;;;6.50;96.20;;;;;;5017021;28;20184;-90
2023/02/11 07:00:37;;;;;;;112.20;101.80;;;6.50;96.20;;;;;;5015834;28;20212;-90
2023/02/11 07:03:03;;;;;;;109.87;98.30;;;6.50;96.30;;;;;;5017272;28;20597;-89
2023/02/11 07:05:29;;;;;;;113.23;101.47;;;6.50;96.20;;;;;;5016214;28;20182;-89
2023/02/11 07:07:54;;;;;;;113.80;102.33;;;6.50;96.30;;;;;;5015621;28;20674;-90
2023/02/11 07:10:20;;;;;;;111.50;100.30;;;6.60;96.30;;;;;;5015190;28;20181;-90
2023/02/11 07:12:45;;;;;;;106.07;95.77;;;6.60;96.30;;;;;;5015355;28;20275;-90
2023/02/11 07:15:11;;;;;;;109.80;99.17;;;6.60;96.30;;;;;;5016832;28;20251;-90
2023/02/11 07:17:36;;;;;;;109.77;98.77;;;6.60;96.30;;;;;;5015597;28;20618;-91
2023/02/11 07:20:02;;;;;;;117.33;104.67;;;6.60;96.30;;;;;;5023375;28;20177;-90
2023/02/11 07:22:28;;;;;;;107.23;96.27;;;6.60;96.30;;;;;;5015255;28;20231;-89
2023/02/11 07:24:54;;;;;;;117.13;105.33;;;6.70;96.30;;;;;;5015446;28;20639;-90
2023/02/11 07:27:19;;;;;;;113.93;102.23;;;6.70;96.30;;;;;;5014995;28;20196;-90
2023/02/11 07:29:45;;;;;;;119.40;106.37;;;6.70;96.30;;;;;;5015164;28;20173;-90
2023/02/11 07:32:14;;;;;;;118.90;106.23;;;6.70;96.30;;;;;;5015072;28;20228;-90
2023/02/11 07:34:39;;;;;;;121.30;108.67;;;6.70;96.30;;;;;;5014898;28;20185;-90
2023/02/11 07:37:05;;;;;;;116.60;103.80;;;6.70;96.30;;;;;;5014935;28;20177;-90
2023/02/11 07:39:30;;;;;;;123.33;110.20;;;6.70;96.30;;;;;;5014764;28;20196;-90
2023/02/11 07:41:56;;;;;;;125.43;109.97;;;6.70;96.30;;;;;;5015008;28;20209;-90
2023/02/11 07:44:22;;;;;;;126.73;114.13;;;6.70;96.30;;;;;;5015242;28;20256;-89
2023/02/11 07:46:48;;;;;;;126.80;114.47;;;6.80;96.30;;;;;;5014973;28;20208;-90
2023/02/11 07:49:14;;;;;;;127.80;114.47;;;6.80;96.30;;;;;;5014760;28;20173;-90
2023/02/11 07:51:40;;;;;;;134.63;121.33;;;6.80;96.30;;;;;;5015823;28;20239;-89
2023/02/11 07:54:06;;;;;;;134.27;121.50;;;6.80;96.30;;;;;;5016416;28;20579;-89
2023/02/11 07:56:33;;;;;;;133.10;120.33;;;6.80;96.30;;;;;;5014732;28;20200;-90
2023/02/11 07:59:01;;;;;;;139.67;124.60;;;6.80;96.30;;;;;;5014538;28;20263;-90
2023/02/11 08:01:27;;;;;;;142.20;127.33;;;6.90;96.30;;;;;;5014664;28;20585;-90
2023/02/11 08:03:55;;;;;;;144.03;129.87;;;6.90;96.30;;;;;;5014794;28;20220;-90
2023/02/11 08:06:22;;;;;;;139.83;126.27;;;6.90;96.30;;;;;;5014698;28;20628;-89
2023/02/11 08:08:48;;;;;;;139.03;125.97;;;6.90;96.30;;;;;;5014414;28;20173;-89
2023/02/11 08:11:17;;;;;;;140.07;125.87;;;6.80;96.30;;;;;;5015513;28;20197;-90
2023/02/11 08:13:43;;;;;;;147.30;132.97;;;6.90;96.30;;;;;;5014414;28;20587;-90
2023/02/11 08:16:25;;;;;;;140.83;127.27;;;6.90;96.30;;;;;;5014222;28;20273;-90
2023/02/11 08:18:52;;;;;;;140.37;127.33;;;6.90;96.30;;;;;;5014114;28;20205;-90
2023/02/11 08:21:19;;;;;;;142.53;129.83;;;7.00;96.30;;;;;;5014046;28;20608;-90
2023/02/11 08:23:45;;;;;;;140.50;127.57;;;7.00;96.30;;;;;;5014300;28;20174;-90
2023/02/11 08:26:16;;;;;;;147.37;133.10;;;7.00;96.30;;;;;;5014247;28;20207;-90
2023/02/11 08:28:43;;;;;;;144.07;130.23;;;6.90;96.30;;;;;;5014675;28;20542;-90
2023/02/11 08:31:12;;;;;;;142.00;128.73;;;7.00;96.30;;;;;;5013934;28;20197;-91
2023/02/11 08:33:41;;;;;;;141.17;127.00;;;6.90;96.30;;;;;;5015108;28;20173;-89
2023/02/11 08:36:16;;;;;;;140.80;128.43;;;7.00;96.30;;;;;;5015045;28;20181;-89
2023/02/11 08:38:42;;;;;;;142.93;128.73;;;7.00;96.30;;;;;;5013877;28;20231;-90
2023/02/11 08:41:09;;;;;;;142.37;129.77;;;7.00;96.30;;;;;;5013846;28;20194;-90
2023/02/11 08:43:35;;;;;;;145.20;132.10;;;7.00;96.30;;;;;;5013815;28;20178;-89
2023/02/11 08:46:01;;;;;;;143.80;130.13;;;7.00;96.30;;;;;;5013708;28;20267;-90
2023/02/11 08:48:27;;;;;;;139.23;126.63;;;7.00;96.30;;;;;;5013842;28;20532;-89
2023/02/11 08:50:53;;;;;;;147.87;134.63;;;7.00;96.30;;;;;;5013548;28;20197;-90
2023/02/11 08:53:19;;;;;;;145.77;132.07;;;7.10;96.30;;;;;;5013756;28;20181;-90
2023/02/11 08:55:53;;;;;;;137.30;125.00;;;7.10;96.30;;;;;;5014902;28;20552;-90
2023/02/11 08:58:19;;;;;;;137.10;124.43;;;7.10;96.30;;;;;;5013482;28;20211;-91
2023/02/11 09:00:45;;;;;;;139.20;126.33;;;7.10;96.30;;;;;;5013594;28;20300;-91
2023/02/11 09:03:12;;;;;;;131.67;118.63;;;7.10;96.30;;;;;;5013528;28;20217;-90
2023/02/11 09:05:49;;;;;;;134.03;121.47;;;7.10;96.30;;;;;;5013318;28;20181;-90
2023/02/11 09:08:15;;;;;;;134.27;122.53;;;7.10;96.30;;;;;;5014320;28;20181;-91
2023/02/11 09:10:41;;;;;;;139.03;125.90;;;7.10;96.30;;;;;;5013843;28;20181;-88
2023/02/11 09:13:07;;;;;;;134.27;122.90;;;7.20;96.30;;;;;;5014631;28;20185;-89
2023/02/11 09:15:33;;;;;;;135.07;122.30;;;7.20;96.30;;;;;;5013065;28;20188;-89
2023/02/11 09:17:58;;;;;;;135.80;122.77;;;7.20;96.30;;;;;;5014045;28;20623;-89
2023/02/11 09:20:26;;;;;;;135.60;122.80;;;7.20;96.30;;;;;;5013566;28;20196;-89
2023/02/11 09:22:52;;;;;;;138.07;125.20;;;7.20;96.30;;;;;;5018204;28;20209;-89
2023/02/11 09:25:17;;;;;;;133.90;121.43;;;7.20;96.30;;;;;;5014139;28;20206;-89
2023/02/11 09:27:43;;;;;;;137.33;124.60;;;7.20;96.30;;;;;;5014536;28;20231;-89
2023/02/11 09:30:09;;;;;;;140.90;128.17;;;7.30;96.30;;;;;;5013201;28;20713;-88
2023/02/11 09:32:35;;;;;;;141.87;127.67;;;7.30;96.30;;;;;;5012821;28;20226;-89
2023/02/11 09:35:00;;;;;;;136.43;123.83;;;7.30;96.30;;;;;;5014260;28;20667;-90
2023/02/11 09:37:26;;;;;;;139.17;126.37;;;7.30;96.30;;;;;;5013433;28;20199;-90
2023/02/11 09:39:51;;;;;;;140.50;127.83;;;7.30;96.30;;;;;;5012598;28;20187;-89
2023/02/11 09:42:30;;;;;;;141.90;128.93;;;7.30;96.20;;;;;;5012765;28;20220;-90
2023/02/11 09:44:56;;;;;;;141.20;127.03;;;7.40;96.30;;;;;;5014256;28;20588;-88
2023/02/11 09:47:32;;;;;;;137.57;125.63;;;7.40;96.20;;;;;;5014068;28;20177;-90
2023/02/11 09:50:09;;;;;;;134.50;122.57;;;7.40;96.30;;;;;;5013391;28;20192;-88
2023/02/11 09:52:38;;;;;;;138.43;126.07;;;7.50;96.20;;;;;;5012762;28;20637;-89
2023/02/11 09:55:17;;;;;;;135.83;123.23;;;7.50;96.20;;;;;;5012773;28;20173;-89
2023/02/11 09:57:43;;;;;;;144.47;131.93;;;7.50;96.20;;;;;;5013152;28;20213;-89
2023/02/11 10:00:21;;;;;;;137.30;125.20;;;7.50;96.20;;;;;;5012851;28;20188;-89
2023/02/11 10:03:01;;;;;;;144.47;130.70;;;7.50;96.20;;;;;;5012902;28;20292;-89
2023/02/11 10:06:00;;;;;;;150.33;136.60;;;7.50;96.10;;;;;;5013489;28;20300;-88
2023/02/11 10:08:53;;;;;;;151.27;137.27;;;7.50;96.10;;;;;;5012740;28;20548;-89
2023/02/11 10:12:00;;;;;;;154.03;140.53;;;7.60;96.10;;;;;;5012634;28;20288;-89
2023/02/11 10:14:53;;;;;;;148.50;136.07;;;7.60;96.00;;;;;;5012715;28;20173;-89
2023/02/11 10:17:24;;;;;;;150.03;137.40;;;7.50;96.00;;;;;;5013777;28;20245;-89
2023/02/11 10:20:02;;;;;;;150.30;137.57;;;7.60;96.00;;;;;;5012422;28;20174;-89
2023/02/11 10:22:33;;;;;;;149.53;136.47;;;7.60;96.00;;;;;;5012329;28;20263;-88
2023/02/11 10:25:04;;;;;;;144.47;132.60;;;7.60;95.90;;;;;;5012704;28;20239;-90
2023/02/11 10:27:32;;;;;;;155.50;142.53;;;7.60;95.90;;;;;;5012533;28;20204;-88
2023/02/11 10:30:22;;;;;;;156.67;144.27;;;7.60;95.90;;;;;;5013458;28;20177;-90
2023/02/11 10:32:55;;;;;;;157.13;145.07;;;7.60;95.90;;;;;;5012125;28;20212;-89
2023/02/11 10:35:22;;;;;;;154.53;141.07;;;7.60;95.90;;;;;;5012230;28;20174;-90
2023/02/11 10:37:48;;;;;;;155.93;143.50;;;7.60;95.90;;;;;;5013789;28;20192;-92
2023/02/11 10:40:26;;;;;;;150.60;138.13;;;7.60;95.90;;;;;;5013634;28;20642;-90
2023/02/11 10:42:56;;;;;;;149.30;138.40;;;7.60;95.90;;;;;;5012014;28;20687;-90
2023/02/11 10:45:40;;;;;;;140.80;129.57;;;7.70;96.00;;;;;;5012195;28;20637;-90
2023/02/11 10:48:38;;;;;;;148.03;135.57;;;7.70;96.00;;;;;;5012422;28;20173;-90
2023/02/11 10:51:12;;;;;;;150.53;138.47;;;7.70;96.00;;;;;;5012847;28;20208;-89
2023/02/11 10:53:38;;;;;;;152.53;140.50;;;7.70;96.00;;;;;;5015356;28;20575;-90
2023/02/11 10:56:06;;;;;;;152.03;139.73;;;7.70;96.00;;;;;;5016908;28;20177;-90
2023/02/11 10:58:38;;;;;;;156.77;143.97;;;7.70;96.00;;;;;;5015509;28;20188;-89
2023/02/11 11:01:04;;;;;;;153.20;140.70;;;7.70;95.90;;;;;;5015950;28;20193;-90
2023/02/11 11:03:36;;;;;;;156.47;144.83;;;7.70;96.00;;;;;;5015219;28;20814;-90
2023/02/11 11:06:05;;;;;;;156.97;144.83;;;7.70;95.90;;;;;;5016744;28;20200;-90
2023/02/11 11:08:49;;;;;;;160.40;148.40;;;7.70;96.00;;;;;;5015582;28;20231;-90
2023/02/11 11:11:20;;;;;;;153.13;141.37;;;7.60;96.00;;;;;;5016605;28;20201;-90
2023/02/11 11:13:52;;;;;;;151.77;139.33;;;7.70;96.00;;;;;;5015236;28;20184;-90
2023/02/11 11:16:29;;;;;;;153.40;142.03;;;7.70;96.00;;;;;;5015341;28;20177;-89
2023/02/11 11:19:06;;;;;;;157.70;145.60;;;7.70;96.00;;;;;;5016991;28;20161;-89
2023/02/11 11:21:51;;;;;;;153.53;141.70;;;7.70;96.00;;;;;;5015577;28;20212;-88
2023/02/11 11:24:38;;;;;;;146.07;134.40;;;7.70;96.00;;;;;;5017085;28;20640;-91
2023/02/11 11:27:04;;;;;;;147.93;136.73;;;7.80;96.00;;;;;;5015495;28;20244;-89
2023/02/11 11:29:42;;;;;;;153.63;142.07;;;7.80;96.00;;;;;;5016601;28;20161;-88
2023/02/11 11:32:14;;;;;;;154.97;143.07;;;7.80;96.00;;;;;;5016517;28;20690;-90
2023/02/11 11:34:52;;;;;;;160.00;148.73;;;7.80;96.00;;;;;;5015018;28;20182;-91
2023/02/11 11:37:30;;;;;;;159.07;147.17;;;7.80;96.00;;;;;;5015988;28;20173;-92
2023/02/11 11:39:58;;;;;;;168.30;155.60;;;7.80;96.00;;;;;;5015203;28;20184;-90
2023/02/11 11:42:35;;;;;;;164.80;153.60;;;7.90;96.00;;;;;;5016035;28;20275;-91
2023/02/11 11:45:18;;;;;;;156.70;145.80;;;7.80;96.00;;;;;;5015078;28;20176;-88
2023/02/11 11:48:13;;;;;;;161.80;149.00;;;7.80;96.10;;;;;;5015385;28;20662;-91
2023/02/11 11:50:47;;;;;;;158.33;146.53;;;7.90;96.10;;;;;;5015635;28;20176;-88
2023/02/11 11:53:30;;;;;;;153.37;142.40;;;7.90;96.10;;;;;;5015081;28;20247;-90
2023/02/11 11:56:03;;;;;;;167.53;155.53;;;7.90;96.10;;;;;;5014836;28;20173;-90
2023/02/11 11:58:30;;;;;;;160.67;149.10;;;7.90;96.00;;;;;;5015912;28;20181;-90
2023/02/11 12:01:39;;;;;;;164.73;152.67;;;7.90;96.10;;;;;;5014590;28;20216;-90
2023/02/11 12:04:36;;;;;;;163.93;152.03;;;7.90;96.10;;;;;;5014506;28;20781;-91
2023/02/11 12:07:24;;;;;;;162.17;150.23;;;7.90;96.10;;;;;;5014379;28;20209;-91
2023/02/11 12:10:13;;;;;;;161.13;149.13;;;7.90;96.10;;;;;;5014636;28;20169;-91
2023/02/11 12:12:47;;;;;;;152.60;141.93;;;7.90;96.10;;;;;;5015073;28;20207;-90
2023/02/11 12:15:35;;;;;;;148.17;137.03;;;7.90;96.10;;;;;;5014191;28;20178;-90
2023/02/11 12:18:19;;;;;;;143.87;133.60;;;7.90;96.10;;;;;;5021205;28;20224;-90
2023/02/11 12:21:09;;;;;;;148.73;137.33;;;7.90;96.10;;;;;;5014255;28;20232;-90
2023/02/11 12:23:52;;;;;;;149.10;138.57;;;8.00;96.10;;;;;;5014178;28;20201;-91
2023/02/11 12:26:25;;;;;;;151.90;141.03;;;7.90;96.20;;;;;;5013936;28;20196;-90
2023/02/11 12:29:19;;;;;;;157.03;146.03;;;8.00;96.20;;;;;;5013922;28;20220;-91
2023/02/11 12:31:47;;;;;;;154.03;143.57;;;8.00;96.10;;;;;;5014496;28;20605;-90
2023/02/11 12:34:40;;;;;;;150.27;140.17;;;8.00;96.20;;;;;;5014007;28;20774;-89
2023/02/11 12:37:37;;;;;;;148.60;136.87;;;8.00;96.20;;;;;;5015265;28;20189;-89
2023/02/11 12:40:24;;;;;;;148.27;137.53;;;8.00;96.20;;;;;;5014326;28;20256;-89
2023/02/11 12:43:20;;;;;;;148.13;136.80;;;8.00;96.20;;;;;;5013575;28;20240;-90
2023/02/11 12:45:51;;;;;;;146.40;136.03;;;8.00;96.20;;;;;;5013916;28;20197;-90
2023/02/11 12:48:30;;;;;;;146.13;134.17;;;8.10;96.20;;;;;;5013803;28;20192;-90
2023/02/11 12:50:58;;;;;;;147.90;136.20;;;8.10;96.20;;;;;;5014522;28;20604;-89
2023/02/11 12:53:33;;;;;;;150.40;139.00;;;8.10;96.20;;;;;;5013598;28;20181;-90